sensor_id;sensor_type;location;lat;lon;timestamp;P1;durP1;ratioP1;P2;durP2;ratioP2
52590;SDS011;38483;42.620;25.394;2024-03-02T00:02:15;86.30;;;35.37;;
52590;SDS011;38483;42.620;25.394;2024-03-02T00:04:44;91.03;;;36.70;;
52590;SDS011;38483;42.620;25.394;2024-03-02T00:07:12;100.23;;;38.47;;
52590;SDS011;38483;42.620;25.394;2024-03-02T00:09:40;106.23;;;39.27;;
52590;SDS011;38483;42.620;25.394;2024-03-02T00:12:07;95.43;;;38.90;;
52590;SDS011;38483;42.620;25.394;2024-03-02T00:14:35;92.93;;;38.17;;
52590;SDS011;38483;42.620;25.394;2024-03-02T00:17:02;102.70;;;40.80;;
52590;SDS011;38483;42.620;25.394;2024-03-02T00:19:29;91.73;;;39.90;;
52590;SDS011;38483;42.620;25.394;2024-03-02T00:21:56;97.03;;;37.87;;
52590;SDS011;38483;42.620;25.394;2024-03-02T00:24:33;94.70;;;38.43;;
52590;SDS011;38483;42.620;25.394;2024-03-02T00:27:01;96.00;;;36.97;;
52590;SDS011;38483;42.620;25.394;2024-03-02T00:29:31;94.33;;;36.43;;
52590;SDS011;38483;42.620;25.394;2024-03-02T00:31:58;85.63;;;35.10;;
52590;SDS011;38483;42.620;25.394;2024-03-02T00:34:25;81.90;;;33.43;;
52590;SDS011;38483;42.620;25.394;2024-03-02T00:36:52;76.30;;;31.50;;
52590;SDS011;38483;42.620;25.394;2024-03-02T00:39:19;76.97;;;32.60;;
52590;SDS011;38483;42.620;25.394;2024-03-02T00:41:46;81.90;;;35.80;;
52590;SDS011;38483;42.620;25.394;2024-03-02T00:44:14;77.27;;;32.13;;
52590;SDS011;38483;42.620;25.394;2024-03-02T00:46:42;79.53;;;32.40;;
52590;SDS011;38483;42.620;25.394;2024-03-02T00:49:17;79.03;;;31.73;;
52590;SDS011;38483;42.620;25.394;2024-03-02T00:51:47;81.87;;;32.73;;
52590;SDS011;38483;42.620;25.394;2024-03-02T00:54:19;74.93;;;32.23;;
52590;SDS011;38483;42.620;25.394;2024-03-02T00:56:47;78.00;;;32.20;;
52590;SDS011;38483;42.620;25.394;2024-03-02T00:59:15;71.23;;;30.80;;
52590;SDS011;38483;42.620;25.394;2024-03-02T01:01:42;70.87;;;33.33;;
52590;SDS011;38483;42.620;25.394;2024-03-02T01:04:09;83.77;;;32.97;;
52590;SDS011;38483;42.620;25.394;2024-03-02T01:06:36;96.90;;;31.17;;
52590;SDS011;38483;42.620;25.394;2024-03-02T01:09:03;96.60;;;34.23;;
52590;SDS011;38483;42.620;25.394;2024-03-02T01:11:31;75.60;;;31.37;;
52590;SDS011;38483;42.620;25.394;2024-03-02T01:13:58;84.47;;;32.43;;
52590;SDS011;38483;42.620;25.394;2024-03-02T01:16:25;78.20;;;31.53;;
52590;SDS011;38483;42.620;25.394;2024-03-02T01:18:52;89.93;;;35.07;;
52590;SDS011;38483;42.620;25.394;2024-03-02T01:21:19;86.57;;;35.73;;
52590;SDS011;38483;42.620;25.394;2024-03-02T01:23:46;87.87;;;32.87;;
52590;SDS011;38483;42.620;25.394;2024-03-02T01:26:13;84.33;;;31.63;;
52590;SDS011;38483;42.620;25.394;2024-03-02T01:28:40;89.23;;;33.43;;
52590;SDS011;38483;42.620;25.394;2024-03-02T01:31:07;102.27;;;34.27;;
52590;SDS011;38483;42.620;25.394;2024-03-02T01:33:34;96.30;;;35.70;;
52590;SDS011;38483;42.620;25.394;2024-03-02T01:36:01;97.10;;;35.80;;
52590;SDS011;38483;42.620;25.394;2024-03-02T01:38:28;103.10;;;36.83;;
52590;SDS011;38483;42.620;25.394;2024-03-02T01:40:55;124.10;;;42.50;;
52590;SDS011;38483;42.620;25.394;2024-03-02T01:43:23;104.90;;;38.73;;
52590;SDS011;38483;42.620;25.394;2024-03-02T01:45:50;100.90;;;37.83;;
52590;SDS011;38483;42.620;25.394;2024-03-02T01:48:17;110.97;;;37.53;;
52590;SDS011;38483;42.620;25.394;2024-03-02T01:50:45;105.97;;;37.37;;
52590;SDS011;38483;42.620;25.394;2024-03-02T01:53:12;99.37;;;36.27;;
52590;SDS011;38483;42.620;25.394;2024-03-02T01:55:39;99.70;;;37.43;;
52590;SDS011;38483;42.620;25.394;2024-03-02T01:58:06;90.67;;;33.93;;
52590;SDS011;38483;42.620;25.394;2024-03-02T02:00:33;91.83;;;31.77;;
52590;SDS011;38483;42.620;25.394;2024-03-02T02:03:00;95.20;;;36.00;;
52590;SDS011;38483;42.620;25.394;2024-03-02T02:05:27;97.37;;;33.37;;
52590;SDS011;38483;42.620;25.394;2024-03-02T02:07:54;87.30;;;33.10;;
52590;SDS011;38483;42.620;25.394;2024-03-02T02:10:21;92.70;;;34.93;;
52590;SDS011;38483;42.620;25.394;2024-03-02T02:12:49;88.67;;;33.77;;
52590;SDS011;38483;42.620;25.394;2024-03-02T02:15:22;81.33;;;31.87;;
52590;SDS011;38483;42.620;25.394;2024-03-02T02:17:54;92.50;;;32.30;;
52590;SDS011;38483;42.620;25.394;2024-03-02T02:20:41;87.23;;;31.23;;
52590;SDS011;38483;42.620;25.394;2024-03-02T02:23:08;77.67;;;30.77;;
52590;SDS011;38483;42.620;25.394;2024-03-02T02:25:36;73.97;;;30.40;;
52590;SDS011;38483;42.620;25.394;2024-03-02T02:28:04;69.93;;;29.17;;
52590;SDS011;38483;42.620;25.394;2024-03-02T02:30:31;72.00;;;27.27;;
52590;SDS011;38483;42.620;25.394;2024-03-02T02:32:59;74.20;;;29.33;;
52590;SDS011;38483;42.620;25.394;2024-03-02T02:35:26;76.50;;;28.40;;
52590;SDS011;38483;42.620;25.394;2024-03-02T02:37:54;62.23;;;27.27;;
52590;SDS011;38483;42.620;25.394;2024-03-02T02:40:23;55.37;;;25.20;;
52590;SDS011;38483;42.620;25.394;2024-03-02T02:42:50;47.03;;;23.67;;
52590;SDS011;38483;42.620;25.394;2024-03-02T02:45:20;55.77;;;24.77;;
52590;SDS011;38483;42.620;25.394;2024-03-02T02:47:48;45.87;;;22.50;;
52590;SDS011;38483;42.620;25.394;2024-03-02T02:50:15;52.00;;;23.20;;
52590;SDS011;38483;42.620;25.394;2024-03-02T02:52:42;55.10;;;24.20;;
52590;SDS011;38483;42.620;25.394;2024-03-02T02:55:10;55.23;;;25.43;;
52590;SDS011;38483;42.620;25.394;2024-03-02T02:57:39;81.30;;;27.50;;
52590;SDS011;38483;42.620;25.394;2024-03-02T03:00:12;95.03;;;27.07;;
52590;SDS011;38483;42.620;25.394;2024-03-02T03:02:46;74.83;;;27.63;;
52590;SDS011;38483;42.620;25.394;2024-03-02T03:05:16;84.37;;;28.73;;
52590;SDS011;38483;42.620;25.394;2024-03-02T03:07:43;92.10;;;28.30;;
52590;SDS011;38483;42.620;25.394;2024-03-02T03:10:12;144.20;;;34.87;;
52590;SDS011;38483;42.620;25.394;2024-03-02T03:12:40;98.97;;;34.13;;
52590;SDS011;38483;42.620;25.394;2024-03-02T03:15:09;103.63;;;32.07;;
52590;SDS011;38483;42.620;25.394;2024-03-02T03:17:37;87.97;;;29.73;;
52590;SDS011;38483;42.620;25.394;2024-03-02T03:20:05;95.97;;;30.57;;
52590;SDS011;38483;42.620;25.394;2024-03-02T03:22:33;89.80;;;31.03;;
52590;SDS011;38483;42.620;25.394;2024-03-02T03:24:59;88.37;;;29.73;;
52590;SDS011;38483;42.620;25.394;2024-03-02T03:27:27;79.20;;;30.30;;
52590;SDS011;38483;42.620;25.394;2024-03-02T03:29:54;84.80;;;30.40;;
52590;SDS011;38483;42.620;25.394;2024-03-02T03:32:21;89.50;;;31.30;;
52590;SDS011;38483;42.620;25.394;2024-03-02T03:34:49;79.87;;;29.80;;
52590;SDS011;38483;42.620;25.394;2024-03-02T03:37:16;81.47;;;30.63;;
52590;SDS011;38483;42.620;25.394;2024-03-02T03:39:43;80.47;;;29.77;;
52590;SDS011;38483;42.620;25.394;2024-03-02T03:42:10;87.00;;;30.23;;
52590;SDS011;38483;42.620;25.394;2024-03-02T03:44:37;95.87;;;31.27;;
52590;SDS011;38483;42.620;25.394;2024-03-02T03:47:03;86.77;;;31.30;;
52590;SDS011;38483;42.620;25.394;2024-03-02T03:49:31;78.33;;;30.23;;
52590;SDS011;38483;42.620;25.394;2024-03-02T03:51:58;74.30;;;29.37;;
52590;SDS011;38483;42.620;25.394;2024-03-02T03:54:25;87.80;;;31.77;;
52590;SDS011;38483;42.620;25.394;2024-03-02T03:56:52;83.23;;;30.60;;
52590;SDS011;38483;42.620;25.394;2024-03-02T03:59:19;77.80;;;31.03;;
52590;SDS011;38483;42.620;25.394;2024-03-02T04:01:46;86.43;;;32.87;;
52590;SDS011;38483;42.620;25.394;2024-03-02T04:04:13;79.00;;;30.80;;
52590;SDS011;38483;42.620;25.394;2024-03-02T04:06:40;74.93;;;28.73;;
52590;SDS011;38483;42.620;25.394;2024-03-02T04:09:07;67.83;;;27.60;;
52590;SDS011;38483;42.620;25.394;2024-03-02T04:11:34;71.63;;;27.53;;
52590;SDS011;38483;42.620;25.394;2024-03-02T04:14:01;70.47;;;26.83;;
52590;SDS011;38483;42.620;25.394;2024-03-02T04:16:28;71.00;;;27.13;;
52590;SDS011;38483;42.620;25.394;2024-03-02T04:18:55;71.53;;;28.87;;
52590;SDS011;38483;42.620;25.394;2024-03-02T04:21:22;75.00;;;27.97;;
52590;SDS011;38483;42.620;25.394;2024-03-02T04:23:49;67.53;;;27.50;;
52590;SDS011;38483;42.620;25.394;2024-03-02T04:26:16;78.03;;;26.60;;
52590;SDS011;38483;42.620;25.394;2024-03-02T04:28:48;68.67;;;27.00;;
52590;SDS011;38483;42.620;25.394;2024-03-02T04:31:15;68.43;;;27.83;;
52590;SDS011;38483;42.620;25.394;2024-03-02T04:33:43;68.90;;;28.03;;
52590;SDS011;38483;42.620;25.394;2024-03-02T04:36:10;70.30;;;28.10;;
52590;SDS011;38483;42.620;25.394;2024-03-02T04:38:37;60.10;;;25.40;;
52590;SDS011;38483;42.620;25.394;2024-03-02T04:41:05;73.00;;;28.67;;
52590;SDS011;38483;42.620;25.394;2024-03-02T04:43:34;71.67;;;29.23;;
52590;SDS011;38483;42.620;25.394;2024-03-02T04:46:01;84.40;;;27.70;;
52590;SDS011;38483;42.620;25.394;2024-03-02T04:48:29;94.23;;;28.87;;
52590;SDS011;38483;42.620;25.394;2024-03-02T04:50:56;88.27;;;30.70;;
52590;SDS011;38483;42.620;25.394;2024-03-02T04:53:23;84.60;;;29.17;;
52590;SDS011;38483;42.620;25.394;2024-03-02T04:55:50;92.37;;;30.00;;
52590;SDS011;38483;42.620;25.394;2024-03-02T04:58:35;106.17;;;29.47;;
52590;SDS011;38483;42.620;25.394;2024-03-02T05:01:02;105.43;;;33.47;;
52590;SDS011;38483;42.620;25.394;2024-03-02T05:03:30;106.00;;;31.50;;
52590;SDS011;38483;42.620;25.394;2024-03-02T05:05:57;98.77;;;32.23;;
52590;SDS011;38483;42.620;25.394;2024-03-02T05:08:24;104.57;;;34.37;;
52590;SDS011;38483;42.620;25.394;2024-03-02T05:10:51;107.93;;;36.23;;
52590;SDS011;38483;42.620;25.394;2024-03-02T05:13:18;93.10;;;32.87;;
52590;SDS011;38483;42.620;25.394;2024-03-02T05:15:45;101.90;;;33.53;;
52590;SDS011;38483;42.620;25.394;2024-03-02T05:18:12;93.43;;;32.70;;
52590;SDS011;38483;42.620;25.394;2024-03-02T05:20:39;97.93;;;32.57;;
52590;SDS011;38483;42.620;25.394;2024-03-02T05:23:06;102.80;;;34.03;;
52590;SDS011;38483;42.620;25.394;2024-03-02T05:25:33;102.70;;;35.73;;
52590;SDS011;38483;42.620;25.394;2024-03-02T05:28:02;103.50;;;35.97;;
52590;SDS011;38483;42.620;25.394;2024-03-02T05:30:29;105.90;;;36.67;;
52590;SDS011;38483;42.620;25.394;2024-03-02T05:32:56;95.60;;;35.90;;
52590;SDS011;38483;42.620;25.394;2024-03-02T05:35:23;109.23;;;35.93;;
52590;SDS011;38483;42.620;25.394;2024-03-02T05:37:50;104.00;;;35.33;;
52590;SDS011;38483;42.620;25.394;2024-03-02T05:40:17;104.30;;;36.67;;
52590;SDS011;38483;42.620;25.394;2024-03-02T05:42:45;107.20;;;35.33;;
52590;SDS011;38483;42.620;25.394;2024-03-02T05:45:14;97.83;;;34.00;;
52590;SDS011;38483;42.620;25.394;2024-03-02T05:47:43;106.07;;;35.67;;
52590;SDS011;38483;42.620;25.394;2024-03-02T05:50:10;116.57;;;34.47;;
52590;SDS011;38483;42.620;25.394;2024-03-02T05:52:37;96.93;;;32.43;;
52590;SDS011;38483;42.620;25.394;2024-03-02T05:55:04;105.83;;;34.00;;
52590;SDS011;38483;42.620;25.394;2024-03-02T05:57:31;94.60;;;33.30;;
52590;SDS011;38483;42.620;25.394;2024-03-02T06:00:12;104.60;;;32.33;;
52590;SDS011;38483;42.620;25.394;2024-03-02T06:02:39;95.73;;;32.50;;
52590;SDS011;38483;42.620;25.394;2024-03-02T06:05:07;88.43;;;32.53;;
52590;SDS011;38483;42.620;25.394;2024-03-02T06:07:34;96.63;;;30.00;;
52590;SDS011;38483;42.620;25.394;2024-03-02T06:10:01;87.67;;;29.87;;
52590;SDS011;38483;42.620;25.394;2024-03-02T06:12:30;89.23;;;27.87;;
52590;SDS011;38483;42.620;25.394;2024-03-02T06:14:58;86.10;;;28.10;;
52590;SDS011;38483;42.620;25.394;2024-03-02T06:17:25;78.07;;;28.83;;
52590;SDS011;38483;42.620;25.394;2024-03-02T06:19:52;89.00;;;27.10;;
52590;SDS011;38483;42.620;25.394;2024-03-02T06:22:19;87.33;;;27.67;;
52590;SDS011;38483;42.620;25.394;2024-03-02T06:24:46;85.43;;;28.53;;
52590;SDS011;38483;42.620;25.394;2024-03-02T06:27:13;100.00;;;32.87;;
52590;SDS011;38483;42.620;25.394;2024-03-02T06:29:40;97.33;;;30.87;;
52590;SDS011;38483;42.620;25.394;2024-03-02T06:32:07;94.97;;;32.73;;
52590;SDS011;38483;42.620;25.394;2024-03-02T06:34:34;120.83;;;34.07;;
52590;SDS011;38483;42.620;25.394;2024-03-02T06:37:01;111.10;;;35.13;;
52590;SDS011;38483;42.620;25.394;2024-03-02T06:39:29;100.43;;;33.43;;
52590;SDS011;38483;42.620;25.394;2024-03-02T06:41:57;104.20;;;32.73;;
52590;SDS011;38483;42.620;25.394;2024-03-02T06:44:24;113.10;;;34.30;;
52590;SDS011;38483;42.620;25.394;2024-03-02T06:46:51;93.93;;;32.17;;
52590;SDS011;38483;42.620;25.394;2024-03-02T06:49:18;92.47;;;32.50;;
52590;SDS011;38483;42.620;25.394;2024-03-02T06:51:45;87.47;;;32.47;;
52590;SDS011;38483;42.620;25.394;2024-03-02T06:54:12;97.07;;;33.00;;
52590;SDS011;38483;42.620;25.394;2024-03-02T06:56:39;89.30;;;31.23;;
52590;SDS011;38483;42.620;25.394;2024-03-02T06:59:06;93.60;;;31.80;;
52590;SDS011;38483;42.620;25.394;2024-03-02T07:01:34;91.60;;;31.43;;
52590;SDS011;38483;42.620;25.394;2024-03-02T07:04:01;87.53;;;32.60;;
52590;SDS011;38483;42.620;25.394;2024-03-02T07:06:28;95.93;;;32.70;;
52590;SDS011;38483;42.620;25.394;2024-03-02T07:08:55;92.33;;;34.33;;
52590;SDS011;38483;42.620;25.394;2024-03-02T07:11:22;88.07;;;30.33;;
52590;SDS011;38483;42.620;25.394;2024-03-02T07:13:49;84.77;;;31.47;;
52590;SDS011;38483;42.620;25.394;2024-03-02T07:16:16;88.17;;;31.63;;
52590;SDS011;38483;42.620;25.394;2024-03-02T07:18:56;76.60;;;29.90;;
52590;SDS011;38483;42.620;25.394;2024-03-02T07:21:23;91.50;;;32.27;;
52590;SDS011;38483;42.620;25.394;2024-03-02T07:23:50;86.20;;;30.57;;
52590;SDS011;38483;42.620;25.394;2024-03-02T07:26:17;82.13;;;31.03;;
52590;SDS011;38483;42.620;25.394;2024-03-02T07:28:48;90.27;;;32.37;;
52590;SDS011;38483;42.620;25.394;2024-03-02T07:31:15;92.30;;;31.40;;
52590;SDS011;38483;42.620;25.394;2024-03-02T07:33:45;84.80;;;30.47;;
52590;SDS011;38483;42.620;25.394;2024-03-02T07:36:15;92.23;;;34.57;;
52590;SDS011;38483;42.620;25.394;2024-03-02T07:38:42;87.47;;;33.17;;
52590;SDS011;38483;42.620;25.394;2024-03-02T07:41:11;92.37;;;35.60;;
52590;SDS011;38483;42.620;25.394;2024-03-02T07:43:39;80.57;;;31.47;;
52590;SDS011;38483;42.620;25.394;2024-03-02T07:46:06;73.17;;;29.03;;
52590;SDS011;38483;42.620;25.394;2024-03-02T07:48:33;67.53;;;28.40;;
52590;SDS011;38483;42.620;25.394;2024-03-02T07:51:00;73.83;;;28.73;;
52590;SDS011;38483;42.620;25.394;2024-03-02T07:53:29;66.77;;;25.67;;
52590;SDS011;38483;42.620;25.394;2024-03-02T07:55:56;60.77;;;27.87;;
52590;SDS011;38483;42.620;25.394;2024-03-02T07:58:28;56.43;;;24.70;;
52590;SDS011;38483;42.620;25.394;2024-03-02T08:00:57;83.77;;;35.57;;
52590;SDS011;38483;42.620;25.394;2024-03-02T08:03:24;70.43;;;31.30;;
52590;SDS011;38483;42.620;25.394;2024-03-02T08:05:51;61.77;;;27.33;;
52590;SDS011;38483;42.620;25.394;2024-03-02T08:08:18;45.23;;;23.23;;
52590;SDS011;38483;42.620;25.394;2024-03-02T08:10:45;69.13;;;30.90;;
52590;SDS011;38483;42.620;25.394;2024-03-02T08:13:12;63.60;;;29.67;;
52590;SDS011;38483;42.620;25.394;2024-03-02T08:15:40;72.53;;;33.53;;
52590;SDS011;38483;42.620;25.394;2024-03-02T08:18:07;53.63;;;27.50;;
52590;SDS011;38483;42.620;25.394;2024-03-02T08:20:34;54.47;;;25.70;;
52590;SDS011;38483;42.620;25.394;2024-03-02T08:23:01;57.60;;;26.30;;
52590;SDS011;38483;42.620;25.394;2024-03-02T08:25:28;51.43;;;23.63;;
52590;SDS011;38483;42.620;25.394;2024-03-02T08:27:56;41.77;;;20.97;;
52590;SDS011;38483;42.620;25.394;2024-03-02T08:30:23;43.13;;;21.30;;
52590;SDS011;38483;42.620;25.394;2024-03-02T08:32:50;42.63;;;21.20;;
52590;SDS011;38483;42.620;25.394;2024-03-02T08:35:19;48.27;;;23.50;;
52590;SDS011;38483;42.620;25.394;2024-03-02T08:37:46;54.93;;;24.77;;
52590;SDS011;38483;42.620;25.394;2024-03-02T08:40:13;58.43;;;27.87;;
52590;SDS011;38483;42.620;25.394;2024-03-02T08:42:44;55.10;;;26.57;;
52590;SDS011;38483;42.620;25.394;2024-03-02T08:45:12;62.07;;;28.00;;
52590;SDS011;38483;42.620;25.394;2024-03-02T08:47:39;62.50;;;26.93;;
52590;SDS011;38483;42.620;25.394;2024-03-02T08:50:06;56.23;;;26.93;;
52590;SDS011;38483;42.620;25.394;2024-03-02T08:52:35;59.77;;;29.43;;
52590;SDS011;38483;42.620;25.394;2024-03-02T08:55:02;59.60;;;28.47;;
52590;SDS011;38483;42.620;25.394;2024-03-02T08:57:29;62.77;;;27.27;;
52590;SDS011;38483;42.620;25.394;2024-03-02T08:59:57;64.70;;;26.70;;
52590;SDS011;38483;42.620;25.394;2024-03-02T09:02:24;68.63;;;32.07;;
52590;SDS011;38483;42.620;25.394;2024-03-02T09:04:51;71.73;;;33.07;;
52590;SDS011;38483;42.620;25.394;2024-03-02T09:07:18;69.97;;;32.47;;
52590;SDS011;38483;42.620;25.394;2024-03-02T09:09:45;64.33;;;31.30;;
52590;SDS011;38483;42.620;25.394;2024-03-02T09:12:12;56.93;;;29.77;;
52590;SDS011;38483;42.620;25.394;2024-03-02T09:14:40;65.97;;;28.77;;
52590;SDS011;38483;42.620;25.394;2024-03-02T09:17:07;58.03;;;28.60;;
52590;SDS011;38483;42.620;25.394;2024-03-02T09:19:37;67.70;;;29.87;;
52590;SDS011;38483;42.620;25.394;2024-03-02T09:22:05;62.10;;;30.57;;
52590;SDS011;38483;42.620;25.394;2024-03-02T09:24:32;58.63;;;27.73;;
52590;SDS011;38483;42.620;25.394;2024-03-02T09:27:02;54.60;;;27.33;;
52590;SDS011;38483;42.620;25.394;2024-03-02T09:29:29;57.57;;;27.80;;
52590;SDS011;38483;42.620;25.394;2024-03-02T09:31:56;57.93;;;29.70;;
52590;SDS011;38483;42.620;25.394;2024-03-02T09:34:23;58.27;;;26.63;;
52590;SDS011;38483;42.620;25.394;2024-03-02T09:36:51;51.43;;;26.03;;
52590;SDS011;38483;42.620;25.394;2024-03-02T09:39:18;53.23;;;26.73;;
52590;SDS011;38483;42.620;25.394;2024-03-02T09:41:46;49.40;;;25.90;;
52590;SDS011;38483;42.620;25.394;2024-03-02T09:44:14;51.57;;;27.03;;
52590;SDS011;38483;42.620;25.394;2024-03-02T09:46:41;48.90;;;25.73;;
52590;SDS011;38483;42.620;25.394;2024-03-02T09:49:10;50.67;;;26.60;;
52590;SDS011;38483;42.620;25.394;2024-03-02T09:51:38;52.90;;;27.30;;
52590;SDS011;38483;42.620;25.394;2024-03-02T09:54:07;45.27;;;25.87;;
52590;SDS011;38483;42.620;25.394;2024-03-02T09:56:47;61.63;;;33.40;;
52590;SDS011;38483;42.620;25.394;2024-03-02T09:59:14;57.67;;;30.83;;
52590;SDS011;38483;42.620;25.394;2024-03-02T10:01:59;45.07;;;25.83;;
52590;SDS011;38483;42.620;25.394;2024-03-02T10:04:28;48.03;;;25.67;;
52590;SDS011;38483;42.620;25.394;2024-03-02T10:07:11;46.10;;;25.70;;
52590;SDS011;38483;42.620;25.394;2024-03-02T10:09:42;43.33;;;24.27;;
52590;SDS011;38483;42.620;25.394;2024-03-02T10:12:14;46.23;;;24.80;;
52590;SDS011;38483;42.620;25.394;2024-03-02T10:14:42;47.20;;;25.43;;
52590;SDS011;38483;42.620;25.394;2024-03-02T10:17:10;50.87;;;26.27;;
52590;SDS011;38483;42.620;25.394;2024-03-02T10:19:38;48.03;;;26.50;;
52590;SDS011;38483;42.620;25.394;2024-03-02T10:22:07;47.43;;;26.30;;
52590;SDS011;38483;42.620;25.394;2024-03-02T10:24:36;42.73;;;25.00;;
52590;SDS011;38483;42.620;25.394;2024-03-02T10:27:08;41.67;;;24.90;;
52590;SDS011;38483;42.620;25.394;2024-03-02T10:29:45;43.60;;;23.47;;
52590;SDS011;38483;42.620;25.394;2024-03-02T10:32:13;44.83;;;24.53;;
52590;SDS011;38483;42.620;25.394;2024-03-02T10:34:40;52.37;;;25.20;;
52590;SDS011;38483;42.620;25.394;2024-03-02T10:37:08;52.03;;;26.60;;
52590;SDS011;38483;42.620;25.394;2024-03-02T10:40:29;48.80;;;23.63;;
52590;SDS011;38483;42.620;25.394;2024-03-02T10:43:51;43.03;;;23.77;;
52590;SDS011;38483;42.620;25.394;2024-03-02T10:47:10;50.17;;;26.83;;
52590;SDS011;38483;42.620;25.394;2024-03-02T10:50:30;57.83;;;27.23;;
52590;SDS011;38483;42.620;25.394;2024-03-02T10:53:52;53.63;;;27.40;;
52590;SDS011;38483;42.620;25.394;2024-03-02T10:57:16;60.03;;;28.00;;
52590;SDS011;38483;42.620;25.394;2024-03-02T11:00:44;62.73;;;30.00;;
52590;SDS011;38483;42.620;25.394;2024-03-02T11:03:12;65.37;;;30.20;;
52590;SDS011;38483;42.620;25.394;2024-03-02T11:05:43;61.93;;;27.53;;
52590;SDS011;38483;42.620;25.394;2024-03-02T11:08:16;58.63;;;28.80;;
52590;SDS011;38483;42.620;25.394;2024-03-02T11:11:36;67.77;;;29.63;;
52590;SDS011;38483;42.620;25.394;2024-03-02T11:14:58;57.77;;;27.63;;
52590;SDS011;38483;42.620;25.394;2024-03-02T11:18:19;62.40;;;29.83;;
52590;SDS011;38483;42.620;25.394;2024-03-02T11:21:40;56.20;;;27.97;;
52590;SDS011;38483;42.620;25.394;2024-03-02T11:25:01;53.80;;;28.47;;
52590;SDS011;38483;42.620;25.394;2024-03-02T11:28:34;65.00;;;30.20;;
52590;SDS011;38483;42.620;25.394;2024-03-02T11:31:57;55.63;;;27.93;;
52590;SDS011;38483;42.620;25.394;2024-03-02T11:35:14;51.47;;;26.97;;
52590;SDS011;38483;42.620;25.394;2024-03-02T11:38:35;47.93;;;23.87;;
52590;SDS011;38483;42.620;25.394;2024-03-02T11:41:56;47.20;;;25.67;;
52590;SDS011;38483;42.620;25.394;2024-03-02T11:45:17;49.17;;;24.83;;
52590;SDS011;38483;42.620;25.394;2024-03-02T11:48:39;41.23;;;21.17;;
52590;SDS011;38483;42.620;25.394;2024-03-02T11:52:00;47.40;;;23.60;;
52590;SDS011;38483;42.620;25.394;2024-03-02T11:55:19;50.97;;;25.77;;
52590;SDS011;38483;42.620;25.394;2024-03-02T11:58:41;45.43;;;22.97;;
52590;SDS011;38483;42.620;25.394;2024-03-02T12:02:02;41.83;;;22.70;;
52590;SDS011;38483;42.620;25.394;2024-03-02T12:04:29;43.47;;;22.47;;
52590;SDS011;38483;42.620;25.394;2024-03-02T12:07:00;41.90;;;23.20;;
52590;SDS011;38483;42.620;25.394;2024-03-02T12:09:28;45.50;;;22.80;;
52590;SDS011;38483;42.620;25.394;2024-03-02T12:12:05;44.33;;;23.03;;
52590;SDS011;38483;42.620;25.394;2024-03-02T12:14:36;41.87;;;21.13;;
52590;SDS011;38483;42.620;25.394;2024-03-02T12:17:05;44.20;;;22.30;;
52590;SDS011;38483;42.620;25.394;2024-03-02T12:19:32;36.60;;;20.87;;
52590;SDS011;38483;42.620;25.394;2024-03-02T12:22:00;37.40;;;20.90;;
52590;SDS011;38483;42.620;25.394;2024-03-02T12:24:28;39.77;;;21.53;;
52590;SDS011;38483;42.620;25.394;2024-03-02T12:26:56;36.33;;;20.60;;
52590;SDS011;38483;42.620;25.394;2024-03-02T12:29:24;38.60;;;20.60;;
52590;SDS011;38483;42.620;25.394;2024-03-02T12:31:52;33.93;;;19.83;;
52590;SDS011;38483;42.620;25.394;2024-03-02T12:34:19;42.80;;;21.80;;
52590;SDS011;38483;42.620;25.394;2024-03-02T12:36:48;38.77;;;20.67;;
52590;SDS011;38483;42.620;25.394;2024-03-02T12:39:19;37.80;;;20.97;;
52590;SDS011;38483;42.620;25.394;2024-03-02T12:41:47;37.03;;;20.77;;
52590;SDS011;38483;42.620;25.394;2024-03-02T12:44:17;39.87;;;20.97;;
52590;SDS011;38483;42.620;25.394;2024-03-02T12:46:45;36.40;;;19.87;;
52590;SDS011;38483;42.620;25.394;2024-03-02T12:49:16;35.53;;;19.50;;
52590;SDS011;38483;42.620;25.394;2024-03-02T12:51:43;38.53;;;21.27;;
52590;SDS011;38483;42.620;25.394;2024-03-02T12:54:11;39.93;;;21.03;;
52590;SDS011;38483;42.620;25.394;2024-03-02T12:56:38;38.90;;;20.70;;
52590;SDS011;38483;42.620;25.394;2024-03-02T12:59:07;36.80;;;20.03;;
52590;SDS011;38483;42.620;25.394;2024-03-02T13:01:33;35.60;;;18.53;;
52590;SDS011;38483;42.620;25.394;2024-03-02T13:04:01;38.23;;;20.50;;
52590;SDS011;38483;42.620;25.394;2024-03-02T13:06:32;37.77;;;20.47;;
52590;SDS011;38483;42.620;25.394;2024-03-02T13:09:00;33.60;;;20.33;;
52590;SDS011;38483;42.620;25.394;2024-03-02T13:11:27;38.23;;;20.53;;
52590;SDS011;38483;42.620;25.394;2024-03-02T13:13:54;37.00;;;19.47;;
52590;SDS011;38483;42.620;25.394;2024-03-02T13:16:21;36.57;;;20.70;;
52590;SDS011;38483;42.620;25.394;2024-03-02T13:18:58;35.27;;;20.50;;
52590;SDS011;38483;42.620;25.394;2024-03-02T13:21:25;36.33;;;19.03;;
52590;SDS011;38483;42.620;25.394;2024-03-02T13:23:52;40.30;;;19.77;;
52590;SDS011;38483;42.620;25.394;2024-03-02T13:26:18;35.23;;;19.77;;
52590;SDS011;38483;42.620;25.394;2024-03-02T13:28:45;34.77;;;20.13;;
52590;SDS011;38483;42.620;25.394;2024-03-02T13:31:12;36.57;;;21.87;;
52590;SDS011;38483;42.620;25.394;2024-03-02T13:33:39;41.97;;;22.60;;
52590;SDS011;38483;42.620;25.394;2024-03-02T13:36:06;37.73;;;21.10;;
52590;SDS011;38483;42.620;25.394;2024-03-02T13:38:34;33.97;;;18.87;;
52590;SDS011;38483;42.620;25.394;2024-03-02T13:41:01;29.23;;;18.43;;
52590;SDS011;38483;42.620;25.394;2024-03-02T13:43:28;34.50;;;20.47;;
52590;SDS011;38483;42.620;25.394;2024-03-02T13:45:58;38.10;;;20.93;;
52590;SDS011;38483;42.620;25.394;2024-03-02T13:48:25;37.37;;;21.97;;
52590;SDS011;38483;42.620;25.394;2024-03-02T13:50:52;36.77;;;22.53;;
52590;SDS011;38483;42.620;25.394;2024-03-02T13:53:20;37.20;;;22.53;;
52590;SDS011;38483;42.620;25.394;2024-03-02T13:55:47;39.67;;;20.93;;
52590;SDS011;38483;42.620;25.394;2024-03-02T13:58:14;34.73;;;19.63;;
52590;SDS011;38483;42.620;25.394;2024-03-02T14:00:41;34.10;;;20.47;;
52590;SDS011;38483;42.620;25.394;2024-03-02T14:03:11;36.47;;;22.07;;
52590;SDS011;38483;42.620;25.394;2024-03-02T14:05:38;38.07;;;21.20;;
52590;SDS011;38483;42.620;25.394;2024-03-02T14:08:05;35.57;;;20.50;;
52590;SDS011;38483;42.620;25.394;2024-03-02T14:10:32;33.00;;;18.77;;
52590;SDS011;38483;42.620;25.394;2024-03-02T14:12:59;38.90;;;20.60;;
52590;SDS011;38483;42.620;25.394;2024-03-02T14:15:26;30.50;;;19.73;;
52590;SDS011;38483;42.620;25.394;2024-03-02T14:17:53;32.60;;;20.37;;
52590;SDS011;38483;42.620;25.394;2024-03-02T14:20:20;31.23;;;19.63;;
52590;SDS011;38483;42.620;25.394;2024-03-02T14:22:49;34.33;;;18.83;;
52590;SDS011;38483;42.620;25.394;2024-03-02T14:25:16;35.47;;;20.50;;
52590;SDS011;38483;42.620;25.394;2024-03-02T14:27:44;32.70;;;20.87;;
52590;SDS011;38483;42.620;25.394;2024-03-02T14:30:15;37.10;;;21.47;;
52590;SDS011;38483;42.620;25.394;2024-03-02T14:32:42;29.73;;;19.37;;
52590;SDS011;38483;42.620;25.394;2024-03-02T14:35:09;34.67;;;19.50;;